sensor_id;sensor_type;location;lat;lon;timestamp;temperature;humidity
19224;DHT22;9746;47.180;9.776;2023-04-08T08:36:44;8.30;99.90
19224;DHT22;9746;47.180;9.776;2023-04-08T08:39:12;8.40;99.90
19224;DHT22;9746;47.180;9.776;2023-04-08T08:42:17;8.40;99.90
19224;DHT22;9746;47.180;9.776;2023-04-08T08:44:45;8.50;99.90
19224;DHT22;9746;47.180;9.776;2023-04-08T08:47:22;8.70;99.90
19224;DHT22;9746;47.180;9.776;2023-04-08T08:49:52;8.90;99.90
19224;DHT22;9746;47.180;9.776;2023-04-08T08:52:23;9.00;99.90
19224;DHT22;9746;47.180;9.776;2023-04-08T08:54:57;9.00;99.90
19224;DHT22;9746;47.180;9.776;2023-04-08T08:57:26;9.00;99.90
19224;DHT22;9746;47.180;9.776;2023-04-08T08:59:54;9.20;99.90
19224;DHT22;9746;47.180;9.776;2023-04-08T09:02:27;9.30;99.90
19224;DHT22;9746;47.180;9.776;2023-04-08T09:05:00;9.40;99.90
19224;DHT22;9746;47.180;9.776;2023-04-08T09:07:31;9.60;99.90
19224;DHT22;9746;47.180;9.776;2023-04-08T09:10:03;9.70;99.90
19224;DHT22;9746;47.180;9.776;2023-04-08T09:12:33;9.80;99.90
19224;DHT22;9746;47.180;9.776;2023-04-08T09:15:06;9.80;99.90
19224;DHT22;9746;47.180;9.776;2023-04-08T09:17:38;10.00;99.90
19224;DHT22;9746;47.180;9.776;2023-04-08T09:20:07;10.10;99.90
19224;DHT22;9746;47.180;9.776;2023-04-08T09:22:57;10.20;99.90
19224;DHT22;9746;47.180;9.776;2023-04-08T09:25:33;10.40;99.90
19224;DHT22;9746;47.180;9.776;2023-04-08T09:28:00;10.40;99.90
19224;DHT22;9746;47.180;9.776;2023-04-08T09:30:28;10.50;99.90
19224;DHT22;9746;47.180;9.776;2023-04-08T09:33:00;10.60;99.90
19224;DHT22;9746;47.180;9.776;2023-04-08T09:35:32;10.80;99.90
19224;DHT22;9746;47.180;9.776;2023-04-08T09:38:02;10.90;99.90
19224;DHT22;9746;47.180;9.776;2023-04-08T09:40:33;10.90;99.90
19224;DHT22;9746;47.180;9.776;2023-04-08T09:43:12;10.90;99.90
19224;DHT22;9746;47.180;9.776;2023-04-08T09:45:42;11.00;99.90
19224;DHT22;9746;47.180;9.776;2023-04-08T09:48:17;11.10;99.90
19224;DHT22;9746;47.180;9.776;2023-04-08T09:50:50;11.20;99.90
19224;DHT22;9746;47.180;9.776;2023-04-08T09:53:45;11.40;99.90
19224;DHT22;9746;47.180;9.776;2023-04-08T09:56:13;11.40;99.90
19224;DHT22;9746;47.180;9.776;2023-04-08T09:58:50;11.10;99.90
19224;DHT22;9746;47.180;9.776;2023-04-08T10:01:23;11.20;99.90
19224;DHT22;9746;47.180;9.776;2023-04-08T10:04:03;11.40;99.90
19224;DHT22;9746;47.180;9.776;2023-04-08T10:06:32;11.70;99.90
19224;DHT22;9746;47.180;9.776;2023-04-08T10:12:01;12.00;99.90
19224;DHT22;9746;47.180;9.776;2023-04-08T10:17:38;12.00;99.90
19224;DHT22;9746;47.180;9.776;2023-04-08T10:20:41;12.00;99.90
19224;DHT22;9746;47.180;9.776;2023-04-08T10:23:17;12.40;99.90
19224;DHT22;9746;47.180;9.776;2023-04-08T10:25:49;12.60;99.90
19224;DHT22;9746;47.180;9.776;2023-04-08T10:28:42;12.50;99.90
19224;DHT22;9746;47.180;9.776;2023-04-08T10:31:21;12.80;99.90
19224;DHT22;9746;47.180;9.776;2023-04-08T10:33:55;12.90;99.90
19224;DHT22;9746;47.180;9.776;2023-04-08T10:36:22;12.90;99.90
19224;DHT22;9746;47.180;9.776;2023-04-08T10:38:59;12.80;99.90
19224;DHT22;9746;47.180;9.776;2023-04-08T10:41:27;12.90;99.90
19224;DHT22;9746;47.180;9.776;2023-04-08T10:44:16;12.90;99.90
19224;DHT22;9746;47.180;9.776;2023-04-08T10:46:44;12.90;99.90
19224;DHT22;9746;47.180;9.776;2023-04-08T10:49:18;12.80;99.90
19224;DHT22;9746;47.180;9.776;2023-04-08T10:51:46;12.70;99.90
19224;DHT22;9746;47.180;9.776;2023-04-08T10:54:29;12.70;99.90
19224;DHT22;9746;47.180;9.776;2023-04-08T10:56:57;12.70;99.90
19224;DHT22;9746;47.180;9.776;2023-04-08T10:59:30;12.50;99.90
19224;DHT22;9746;47.180;9.776;2023-04-08T11:01:59;12.50;99.90
19224;DHT22;9746;47.180;9.776;2023-04-08T11:04:28;12.50;99.90
19224;DHT22;9746;47.180;9.776;2023-04-08T11:06:55;12.30;99.90
19224;DHT22;9746;47.180;9.776;2023-04-08T11:09:26;12.20;99.90
19224;DHT22;9746;47.180;9.776;2023-04-08T11:11:56;12.20;99.90
19224;DHT22;9746;47.180;9.776;2023-04-08T11:14:31;12.30;99.90
19224;DHT22;9746;47.180;9.776;2023-04-08T11:17:00;12.40;99.90
19224;DHT22;9746;47.180;9.776;2023-04-08T11:19:32;12.60;99.90
19224;DHT22;9746;47.180;9.776;2023-04-08T11:22:01;12.70;99.90
19224;DHT22;9746;47.180;9.776;2023-04-08T11:24:32;12.70;99.90
19224;DHT22;9746;47.180;9.776;2023-04-08T11:27:01;12.80;99.90
19224;DHT22;9746;47.180;9.776;2023-04-08T11:30:05;12.90;99.90
19224;DHT22;9746;47.180;9.776;2023-04-08T11:32:34;13.00;99.90
19224;DHT22;9746;47.180;9.776;2023-04-08T11:35:04;13.10;99.90
19224;DHT22;9746;47.180;9.776;2023-04-08T11:37:37;12.90;99.90
19224;DHT22;9746;47.180;9.776;2023-04-08T11:40:28;13.00;99.90
19224;DHT22;9746;47.180;9.776;2023-04-08T11:42:56;13.10;99.90
19224;DHT22;9746;47.180;9.776;2023-04-08T11:45:36;13.20;99.90
19224;DHT22;9746;47.180;9.776;2023-04-08T11:48:08;13.20;99.90
19224;DHT22;9746;47.180;9.776;2023-04-08T11:50:36;13.20;99.90
19224;DHT22;9746;47.180;9.776;2023-04-08T11:53:14;13.30;99.90
19224;DHT22;9746;47.180;9.776;2023-04-08T11:56:14;13.50;99.90
19224;DHT22;9746;47.180;9.776;2023-04-08T11:59:09;13.60;99.90
19224;DHT22;9746;47.180;9.776;2023-04-08T12:01:38;13.50;99.90
19224;DHT22;9746;47.180;9.776;2023-04-08T12:04:34;13.40;99.90
19224;DHT22;9746;47.180;9.776;2023-04-08T12:07:02;13.30;99.90
19224;DHT22;9746;47.180;9.776;2023-04-08T12:09:42;13.30;99.90
19224;DHT22;9746;47.180;9.776;2023-04-08T12:12:10;13.30;99.90
19224;DHT22;9746;47.180;9.776;2023-04-08T12:14:40;13.30;99.90
19224;DHT22;9746;47.180;9.776;2023-04-08T12:17:09;13.40;99.90
19224;DHT22;9746;47.180;9.776;2023-04-08T12:19:44;13.70;99.90
19224;DHT22;9746;47.180;9.776;2023-04-08T12:22:11;13.70;99.90
19224;DHT22;9746;47.180;9.776;2023-04-08T12:24:54;13.80;99.90
19224;DHT22;9746;47.180;9.776;2023-04-08T12:27:22;13.60;99.90
19224;DHT22;9746;47.180;9.776;2023-04-08T12:29:50;13.40;99.90
19224;DHT22;9746;47.180;9.776;2023-04-08T12:32:19;13.30;99.90
19224;DHT22;9746;47.180;9.776;2023-04-08T12:35:05;13.20;99.90
19224;DHT22;9746;47.180;9.776;2023-04-08T12:37:33;13.20;99.90
19224;DHT22;9746;47.180;9.776;2023-04-08T12:40:13;13.20;99.90
19224;DHT22;9746;47.180;9.776;2023-04-08T12:42:41;13.30;99.90
19224;DHT22;9746;47.180;9.776;2023-04-08T12:45:09;13.30;99.90
19224;DHT22;9746;47.180;9.776;2023-04-08T12:47:38;13.30;99.90
19224;DHT22;9746;47.180;9.776;2023-04-08T12:50:11;12.90;99.90
19224;DHT22;9746;47.180;9.776;2023-04-08T12:52:40;12.70;99.90
19224;DHT22;9746;47.180;9.776;2023-04-08T12:55:15;12.70;99.90
19224;DHT22;9746;47.180;9.776;2023-04-08T12:57:43;12.90;99.90
19224;DHT22;9746;47.180;9.776;2023-04-08T13:00:30;12.90;99.90
19224;DHT22;9746;47.180;9.776;2023-04-08T13:02:59;12.50;99.90
19224;DHT22;9746;47.180;9.776;2023-04-08T13:05:27;12.00;99.90
19224;DHT22;9746;47.180;9.776;2023-04-08T13:07:55;11.90;99.90
19224;DHT22;9746;47.180;9.776;2023-04-08T13:13:21;12.00;99.90
19224;DHT22;9746;47.180;9.776;2023-04-08T13:15:57;11.90;99.90
19224;DHT22;9746;47.180;9.776;2023-04-08T13:18:26;11.70;99.90
19224;DHT22;9746;47.180;9.776;2023-04-08T13:21:04;11.70;99.90
19224;DHT22;9746;47.180;9.776;2023-04-08T13:23:31;11.60;99.90
19224;DHT22;9746;47.180;9.776;2023-04-08T13:26:01;11.40;99.90
19224;DHT22;9746;47.180;9.776;2023-04-08T13:28:28;11.40;99.90
19224;DHT22;9746;47.180;9.776;2023-04-08T13:31:03;11.40;99.90
19224;DHT22;9746;47.180;9.776;2023-04-08T13:33:32;11.40;99.90
19224;DHT22;9746;47.180;9.776;2023-04-08T13:36:00;11.50;99.90
19224;DHT22;9746;47.180;9.776;2023-04-08T13:38:27;11.50;99.90
19224;DHT22;9746;47.180;9.776;2023-04-08T13:40:55;11.50;99.90
19224;DHT22;9746;47.180;9.776;2023-04-08T13:43:23;11.30;99.90
19224;DHT22;9746;47.180;9.776;2023-04-08T13:46:09;11.30;99.90
19224;DHT22;9746;47.180;9.776;2023-04-08T13:48:38;11.10;99.90
19224;DHT22;9746;47.180;9.776;2023-04-08T13:51:08;10.90;99.90
19224;DHT22;9746;47.180;9.776;2023-04-08T13:53:35;10.90;99.90
19224;DHT22;9746;47.180;9.776;2023-04-08T13:58:59;10.90;99.90
19224;DHT22;9746;47.180;9.776;2023-04-08T14:04:50;10.90;99.90
19224;DHT22;9746;47.180;9.776;2023-04-08T14:07:17;10.90;99.90
19224;DHT22;9746;47.180;9.776;2023-04-08T14:09:47;11.00;99.90
19224;DHT22;9746;47.180;9.776;2023-04-08T14:12:14;11.10;99.90
19224;DHT22;9746;47.180;9.776;2023-04-08T14:14:59;11.20;99.90
19224;DHT22;9746;47.180;9.776;2023-04-08T14:17:27;11.30;99.90
19224;DHT22;9746;47.180;9.776;2023-04-08T14:19:59;11.30;99.90
19224;DHT22;9746;47.180;9.776;2023-04-08T14:22:29;11.30;99.90
19224;DHT22;9746;47.180;9.776;2023-04-08T14:24:56;11.30;99.90
19224;DHT22;9746;47.180;9.776;2023-04-08T14:27:24;11.10;99.90
19224;DHT22;9746;47.180;9.776;2023-04-08T14:29:57;11.20;99.90
19224;DHT22;9746;47.180;9.776;2023-04-08T14:32:24;11.10;99.90
19224;DHT22;9746;47.180;9.776;2023-04-08T14:34:52;11.10;99.90
19224;DHT22;9746;47.180;9.776;2023-04-08T14:37:21;11.00;99.90
19224;DHT22;9746;47.180;9.776;2023-04-08T14:39:49;10.80;99.90
19224;DHT22;9746;47.180;9.776;2023-04-08T14:42:16;10.80;99.90
19224;DHT22;9746;47.180;9.776;2023-04-08T14:44:46;10.60;99.90
19224;DHT22;9746;47.180;9.776;2023-04-08T14:47:18;10.50;99.90
19224;DHT22;9746;47.180;9.776;2023-04-08T14:49:46;10.50;99.90
19224;DHT22;9746;47.180;9.776;2023-04-08T14:52:16;10.60;99.90
19224;DHT22;9746;47.180;9.776;2023-04-08T14:54:46;10.60;99.90
19224;DHT22;9746;47.180;9.776;2023-04-08T14:57:15;10.70;99.90
19224;DHT22;9746;47.180;9.776;2023-04-08T14:59:42;10.80;99.90
19224;DHT22;9746;47.180;9.776;2023-04-08T15:02:09;10.80;99.90
19224;DHT22;9746;47.180;9.776;2023-04-08T15:04:37;10.80;99.90
19224;DHT22;9746;47.180;9.776;2023-04-08T15:07:13;10.80;99.90
19224;DHT22;9746;47.180;9.776;2023-04-08T15:09:41;10.80;99.90
19224;DHT22;9746;47.180;9.776;2023-04-08T15:12:10;10.70;99.90
19224;DHT22;9746;47.180;9.776;2023-04-08T15:14:37;10.50;99.90
19224;DHT22;9746;47.180;9.776;2023-04-08T15:17:11;10.30;99.90
19224;DHT22;9746;47.180;9.776;2023-04-08T15:19:38;10.20;99.90
19224;DHT22;9746;47.180;9.776;2023-04-08T15:22:14;10.20;99.90
19224;DHT22;9746;47.180;9.776;2023-04-08T15:24:41;10.00;99.90
19224;DHT22;9746;47.180;9.776;2023-04-08T15:27:19;9.90;99.90
19224;DHT22;9746;47.180;9.776;2023-04-08T15:29:46;9.70;99.90
19224;DHT22;9746;47.180;9.776;2023-04-08T15:32:17;9.60;99.90
19224;DHT22;9746;47.180;9.776;2023-04-08T15:34:45;9.60;99.90
19224;DHT22;9746;47.180;9.776;2023-04-08T15:37:13;9.50;99.90
19224;DHT22;9746;47.180;9.776;2023-04-08T15:39:43;9.40;99.90
19224;DHT22;9746;47.180;9.776;2023-04-08T15:42:20;9.30;99.90
19224;DHT22;9746;47.180;9.776;2023-04-08T15:44:47;9.30;99.90
19224;DHT22;9746;47.180;9.776;2023-04-08T15:47:20;9.10;99.90
19224;DHT22;9746;47.180;9.776;2023-04-08T15:49:47;9.00;99.90
19224;DHT22;9746;47.180;9.776;2023-04-08T15:52:22;9.00;99.90
19224;DHT22;9746;47.180;9.776;2023-04-08T15:54:49;8.90;99.90
19224;DHT22;9746;47.180;9.776;2023-04-08T15:57:21;8.90;99.90
19224;DHT22;9746;47.180;9.776;2023-04-08T15:59:51;8.90;99.90
19224;DHT22;9746;47.180;9.776;2023-04-08T16:02:18;8.90;99.90
19224;DHT22;9746;47.180;9.776;2023-04-08T16:04:46;9.00;99.90
19224;DHT22;9746;47.180;9.776;2023-04-08T16:07:18;9.10;99.90
19224;DHT22;9746;47.180;9.776;2023-04-08T16:09:46;9.10;99.90
19224;DHT22;9746;47.180;9.776;2023-04-08T16:12:34;9.10;99.90
19224;DHT22;9746;47.180;9.776;2023-04-08T16:15:01;9.10;99.90
19224;DHT22;9746;47.180;9.776;2023-04-08T16:17:37;9.00;99.90
19224;DHT22;9746;47.180;9.776;2023-04-08T16:20:06;9.00;99.90
19224;DHT22;9746;47.180;9.776;2023-04-08T16:23:02;9.00;99.90
19224;DHT22;9746;47.180;9.776;2023-04-08T16:25:52;9.00;99.90
19224;DHT22;9746;47.180;9.776;2023-04-08T16:28:22;9.00;99.90
19224;DHT22;9746;47.180;9.776;2023-04-08T16:31:22;9.00;99.90
19224;DHT22;9746;47.180;9.776;2023-04-08T16:33:49;8.80;99.90
19224;DHT22;9746;47.180;9.776;2023-04-08T16:36:16;8.70;99.90
19224;DHT22;9746;47.180;9.776;2023-04-08T16:38:44;8.70;99.90
19224;DHT22;9746;47.180;9.776;2023-04-08T16:41:12;8.60;99.90
19224;DHT22;9746;47.180;9.776;2023-04-08T16:43:41;8.60;99.90
19224;DHT22;9746;47.180;9.776;2023-04-08T16:46:21;8.50;99.90
19224;DHT22;9746;47.180;9.776;2023-04-08T16:48:57;8.50;99.90
19224;DHT22;9746;47.180;9.776;2023-04-08T16:51:35;8.40;99.90
19224;DHT22;9746;47.180;9.776;2023-04-08T16:54:02;8.40;99.90
19224;DHT22;9746;47.180;9.776;2023-04-08T16:56:30;8.30;99.90
19224;DHT22;9746;47.180;9.776;2023-04-08T16:58:59;8.30;99.90
19224;DHT22;9746;47.180;9.776;2023-04-08T17:01:28;8.20;99.90
19224;DHT22;9746;47.180;9.776;2023-04-08T17:03:55;8.20;99.90
19224;DHT22;9746;47.180;9.776;2023-04-08T17:06:29;8.10;99.90
19224;DHT22;9746;47.180;9.776;2023-04-08T17:09:11;8.10;99.90
19224;DHT22;9746;47.180;9.776;2023-04-08T17:11:41;8.10;99.90
19224;DHT22;9746;47.180;9.776;2023-04-08T17:14:20;8.00;99.90
19224;DHT22;9746;47.180;9.776;2023-04-08T17:17:22;8.00;99.90
19224;DHT22;9746;47.180;9.776;2023-04-08T17:19:51;8.00;99.90
19224;DHT22;9746;47.180;9.776;2023-04-08T17:22:33;8.00;99.90
19224;DHT22;9746;47.180;9.776;2023-04-08T17:25:01;8.00;99.90
19224;DHT22;9746;47.180;9.776;2023-04-08T17:27:36;8.00;99.90
19224;DHT22;9746;47.180;9.776;2023-04-08T17:30:08;7.90;99.90
19224;DHT22;9746;47.180;9.776;2023-04-08T17:32:45;7.90;99.90
19224;DHT22;9746;47.180;9.776;2023-04-08T17:35:15;7.90;99.90
19224;DHT22;9746;47.180;9.776;2023-04-08T17:37:45;7.90;99.90
19224;DHT22;9746;47.180;9.776;2023-04-08T17:40:17;7.90;99.90
19224;DHT22;9746;47.180;9.776;2023-04-08T17:42:56;7.90;99.90
19224;DHT22;9746;47.180;9.776;2023-04-08T17:45:57;7.90;99.90
19224;DHT22;9746;47.180;9.776;2023-04-08T17:48:31;7.90;99.90
19224;DHT22;9746;47.180;9.776;2023-04-08T17:50:59;7.90;99.90
19224;DHT22;9746;47.180;9.776;2023-04-08T17:53:27;7.90;99.90
19224;DHT22;9746;47.180;9.776;2023-04-08T17:55:54;7.90;99.90
19224;DHT22;9746;47.180;9.776;2023-04-08T17:58:24;7.90;99.90
19224;DHT22;9746;47.180;9.776;2023-04-08T18:00:53;7.90;99.90
19224;DHT22;9746;47.180;9.776;2023-04-08T18:03:25;8.00;99.90
19224;DHT22;9746;47.180;9.776;2023-04-08T18:05:54;7.90;99.90
19224;DHT22;9746;47.180;9.776;2023-04-08T18:08:24;7.90;99.90
19224;DHT22;9746;47.180;9.776;2023-04-08T18:10:51;7.90;99.90
19224;DHT22;9746;47.180;9.776;2023-04-08T18:13:19;7.80;99.90
19224;DHT22;9746;47.180;9.776;2023-04-08T18:15:46;7.80;99.90
19224;DHT22;9746;47.180;9.776;2023-04-08T18:18:15;7.80;99.90
19224;DHT22;9746;47.180;9.776;2023-04-08T18:20:45;7.80;99.90
19224;DHT22;9746;47.180;9.776;2023-04-08T18:23:14;7.80;99.90
19224;DHT22;9746;47.180;9.776;2023-04-08T18:25:41;7.80;99.90
19224;DHT22;9746;47.180;9.776;2023-04-08T18:28:12;7.80;99.90
19224;DHT22;9746;47.180;9.776;2023-04-08T18:30:40;7.70;99.90
19224;DHT22;9746;47.180;9.776;2023-04-08T18:33:19;7.70;99.90
19224;DHT22;9746;47.180;9.776;2023-04-08T18:35:47;7.70;99.90
19224;DHT22;9746;47.180;9.776;2023-04-08T18:38:20;7.70;99.90
19224;DHT22;9746;47.180;9.776;2023-04-08T18:40:48;7.60;99.90
19224;DHT22;9746;47.180;9.776;2023-04-08T18:43:19;7.50;99.90
19224;DHT22;9746;47.180;9.776;2023-04-08T18:45:48;7.50;99.90
19224;DHT22;9746;47.180;9.776;2023-04-08T18:48:15;7.50;99.90
19224;DHT22;9746;47.180;9.776;2023-04-08T18:50:44;7.50;99.90
19224;DHT22;9746;47.180;9.776;2023-04-08T18:53:15;7.50;99.90
19224;DHT22;9746;47.180;9.776;2023-04-08T18:58:28;7.50;99.90
19224;DHT22;9746;47.180;9.776;2023-04-08T19:00:56;7.50;99.90
19224;DHT22;9746;47.180;9.776;2023-04-08T19:03:56;7.50;99.90
19224;DHT22;9746;47.180;9.776;2023-04-08T19:06:25;7.50;99.90
19224;DHT22;9746;47.180;9.776;2023-04-08T19:08:59;7.50;99.90
19224;DHT22;9746;47.180;9.776;2023-04-08T19:11:27;7.50;99.90
19224;DHT22;9746;47.180;9.776;2023-04-08T19:14:26;7.50;99.90
